sensor_id;sensor_type;location;lat;lon;timestamp;pressure;altitude;pressure_sealevel;temperature;humidity
22261;BME280;11299;43.202;27.920;2023-05-21T00:01:36;-21280.13;;;19.00;100.00
22261;BME280;11299;43.202;27.920;2023-05-21T00:04:03;-21258.59;;;18.31;100.00
22261;BME280;11299;43.202;27.920;2023-05-21T00:06:34;-21278.25;;;18.94;100.00
22261;BME280;11299;43.202;27.920;2023-05-21T00:09:01;-21282.78;;;19.09;100.00
22261;BME280;11299;43.202;27.920;2023-05-21T00:11:27;-21280.75;;;19.02;100.00
22261;BME280;11299;43.202;27.920;2023-05-21T00:13:53;-21281.69;;;19.05;100.00
22261;BME280;11299;43.202;27.920;2023-05-21T00:16:18;-21281.22;;;19.04;100.00
22261;BME280;11299;43.202;27.920;2023-05-21T00:18:44;-21275.59;;;18.86;100.00
22261;BME280;11299;43.202;27.920;2023-05-21T00:21:09;-21255.63;;;18.21;100.00
22261;BME280;11299;43.202;27.920;2023-05-21T00:23:36;-21279.34;;;18.98;100.00
22261;BME280;11299;43.202;27.920;2023-05-21T00:26:03;-21273.09;;;18.77;100.00
22261;BME280;11299;43.202;27.920;2023-05-21T00:28:29;-21284.66;;;19.15;100.00
22261;BME280;11299;43.202;27.920;2023-05-21T00:30:55;-21275.13;;;18.84;100.00
22261;BME280;11299;43.202;27.920;2023-05-21T00:33:21;-21274.06;;;18.81;100.00
22261;BME280;11299;43.202;27.920;2023-05-21T00:35:46;-21276.56;;;18.89;100.00
22261;BME280;11299;43.202;27.920;2023-05-21T00:38:12;-21269.84;;;18.67;100.00
22261;BME280;11299;43.202;27.920;2023-05-21T00:40:38;-21254.22;;;18.17;100.00
22261;BME280;11299;43.202;27.920;2023-05-21T00:43:05;-21254.06;;;18.16;100.00
22261;BME280;11299;43.202;27.920;2023-05-21T00:45:35;-21268.75;;;18.63;100.00
22261;BME280;11299;43.202;27.920;2023-05-21T00:48:02;-21254.53;;;18.18;100.00
22261;BME280;11299;43.202;27.920;2023-05-21T00:50:28;-21270.00;;;18.67;100.00
22261;BME280;11299;43.202;27.920;2023-05-21T00:52:55;-21272.97;;;18.77;100.00
22261;BME280;11299;43.202;27.920;2023-05-21T00:55:21;-21264.22;;;18.49;100.00
22261;BME280;11299;43.202;27.920;2023-05-21T00:57:46;-21266.25;;;18.55;100.00
22261;BME280;11299;43.202;27.920;2023-05-21T01:00:14;-21267.50;;;18.59;100.00
22261;BME280;11299;43.202;27.920;2023-05-21T01:02:40;-21245.94;;;17.90;100.00
22261;BME280;11299;43.202;27.920;2023-05-21T01:05:06;-21266.56;;;18.56;100.00
22261;BME280;11299;43.202;27.920;2023-05-21T01:07:33;-21264.38;;;18.49;100.00
22261;BME280;11299;43.202;27.920;2023-05-21T01:10:06;-21259.38;;;18.33;100.00
22261;BME280;11299;43.202;27.920;2023-05-21T01:12:33;-21261.72;;;18.41;100.00
22261;BME280;11299;43.202;27.920;2023-05-21T01:15:03;-21260.94;;;18.38;100.00
22261;BME280;11299;43.202;27.920;2023-05-21T01:17:29;-21262.50;;;18.43;100.00
22261;BME280;11299;43.202;27.920;2023-05-21T01:19:59;-21258.44;;;18.30;100.00
22261;BME280;11299;43.202;27.920;2023-05-21T01:22:27;-21260.63;;;18.37;100.00
22261;BME280;11299;43.202;27.920;2023-05-21T01:24:53;-21261.88;;;18.41;100.00
22261;BME280;11299;43.202;27.920;2023-05-21T01:27:20;-21261.56;;;18.40;100.00
22261;BME280;11299;43.202;27.920;2023-05-21T01:29:46;-21241.25;;;17.75;100.00
22261;BME280;11299;43.202;27.920;2023-05-21T01:32:24;-21227.66;;;17.31;100.00
22261;BME280;11299;43.202;27.920;2023-05-21T01:35:04;-21259.53;;;18.34;100.00
22261;BME280;11299;43.202;27.920;2023-05-21T01:37:35;-21262.03;;;18.42;100.00
22261;BME280;11299;43.202;27.920;2023-05-21T01:40:24;-21265.16;;;18.52;100.00
22261;BME280;11299;43.202;27.920;2023-05-21T01:42:47;-21257.19;;;18.26;100.00
22261;BME280;11299;43.202;27.920;2023-05-21T01:45:16;-21261.09;;;18.39;100.00
22261;BME280;11299;43.202;27.920;2023-05-21T01:47:46;-21260.63;;;18.37;100.00
22261;BME280;11299;43.202;27.920;2023-05-21T01:50:13;-21260.31;;;18.36;100.00
22261;BME280;11299;43.202;27.920;2023-05-21T01:52:50;-21258.44;;;18.30;100.00
22261;BME280;11299;43.202;27.920;2023-05-21T01:55:17;-21263.28;;;18.46;100.00
22261;BME280;11299;43.202;27.920;2023-05-21T01:57:42;-21258.75;;;18.31;100.00
22261;BME280;11299;43.202;27.920;2023-05-21T02:00:08;-21263.13;;;18.45;100.00
22261;BME280;11299;43.202;27.920;2023-05-21T02:02:35;-21259.06;;;18.32;100.00
22261;BME280;11299;43.202;27.920;2023-05-21T02:05:00;-21263.59;;;18.47;100.00
22261;BME280;11299;43.202;27.920;2023-05-21T02:07:26;-21260.63;;;18.37;100.00
22261;BME280;11299;43.202;27.920;2023-05-21T02:09:53;-21260.31;;;18.36;100.00
22261;BME280;11299;43.202;27.920;2023-05-21T02:12:18;-21260.00;;;18.35;100.00
22261;BME280;11299;43.202;27.920;2023-05-21T02:14:44;-21255.47;;;18.21;100.00
22261;BME280;11299;43.202;27.920;2023-05-21T02:17:14;-21250.31;;;18.04;100.00
22261;BME280;11299;43.202;27.920;2023-05-21T02:19:41;-21260.47;;;18.37;100.00
22261;BME280;11299;43.202;27.920;2023-05-21T02:22:09;-21258.13;;;18.29;100.00
22261;BME280;11299;43.202;27.920;2023-05-21T02:24:35;-21255.94;;;18.22;100.00
22261;BME280;11299;43.202;27.920;2023-05-21T02:27:00;-21260.00;;;18.35;100.00
22261;BME280;11299;43.202;27.920;2023-05-21T02:29:27;-21247.66;;;17.96;100.00
22261;BME280;11299;43.202;27.920;2023-05-21T02:31:52;-21255.78;;;18.22;100.00
22261;BME280;11299;43.202;27.920;2023-05-21T02:34:18;-21257.81;;;18.28;100.00
22261;BME280;11299;43.202;27.920;2023-05-21T02:36:46;-21235.16;;;17.55;100.00
22261;BME280;11299;43.202;27.920;2023-05-21T02:39:18;-21235.63;;;17.57;100.00
22261;BME280;11299;43.202;27.920;2023-05-21T02:41:45;-21250.00;;;18.03;100.00
22261;BME280;11299;43.202;27.920;2023-05-21T02:44:11;-21247.34;;;17.95;100.00
22261;BME280;11299;43.202;27.920;2023-05-21T02:46:36;-21252.03;;;18.10;100.00
22261;BME280;11299;43.202;27.920;2023-05-21T02:49:02;-21214.03;;;16.87;100.00
22261;BME280;11299;43.202;27.920;2023-05-21T02:51:28;-21248.44;;;17.98;100.00
22261;BME280;11299;43.202;27.920;2023-05-21T02:53:53;-21251.41;;;18.08;100.00
22261;BME280;11299;43.202;27.920;2023-05-21T02:56:18;-21250.78;;;18.06;100.00
22261;BME280;11299;43.202;27.920;2023-05-21T02:58:44;-21226.41;;;17.27;100.00
22261;BME280;11299;43.202;27.920;2023-05-21T03:01:10;-21210.44;;;16.76;100.00
22261;BME280;11299;43.202;27.920;2023-05-21T03:03:35;-21247.81;;;17.96;100.00
22261;BME280;11299;43.202;27.920;2023-05-21T03:06:00;-21231.25;;;17.43;100.00
22261;BME280;11299;43.202;27.920;2023-05-21T03:08:26;-21249.38;;;18.01;100.00
22261;BME280;11299;43.202;27.920;2023-05-21T03:10:51;-21217.63;;;16.99;100.00
22261;BME280;11299;43.202;27.920;2023-05-21T03:13:17;-21211.53;;;16.79;100.00
22261;BME280;11299;43.202;27.920;2023-05-21T03:15:42;-21249.38;;;18.01;100.00
22261;BME280;11299;43.202;27.920;2023-05-21T03:18:09;-21254.38;;;18.17;100.00
22261;BME280;11299;43.202;27.920;2023-05-21T03:20:35;-21256.09;;;18.23;100.00
22261;BME280;11299;43.202;27.920;2023-05-21T03:23:07;-21255.63;;;18.21;100.00
22261;BME280;11299;43.202;27.920;2023-05-21T03:25:33;-21252.50;;;18.11;100.00
22261;BME280;11299;43.202;27.920;2023-05-21T03:27:58;-21255.00;;;18.19;100.00
22261;BME280;11299;43.202;27.920;2023-05-21T03:30:23;-21257.19;;;18.26;100.00
22261;BME280;11299;43.202;27.920;2023-05-21T03:32:49;-21254.38;;;18.17;100.00
22261;BME280;11299;43.202;27.920;2023-05-21T03:35:15;-21261.72;;;18.41;100.00
22261;BME280;11299;43.202;27.920;2023-05-21T03:37:41;-21261.88;;;18.41;100.00
22261;BME280;11299;43.202;27.920;2023-05-21T03:40:06;-21265.94;;;18.54;100.00
22261;BME280;11299;43.202;27.920;2023-05-21T03:42:32;-21244.06;;;17.84;100.00
22261;BME280;11299;43.202;27.920;2023-05-21T03:44:58;-21268.75;;;18.63;100.00
22261;BME280;11299;43.202;27.920;2023-05-21T03:47:23;-21255.47;;;18.21;100.00
22261;BME280;11299;43.202;27.920;2023-05-21T03:49:48;-21277.31;;;18.91;100.00
22261;BME280;11299;43.202;27.920;2023-05-21T03:52:14;-21259.84;;;18.35;100.00
22261;BME280;11299;43.202;27.920;2023-05-21T03:54:40;-21280.75;;;19.02;100.00
22261;BME280;11299;43.202;27.920;2023-05-21T03:57:05;-21288.09;;;19.26;100.00
22261;BME280;11299;43.202;27.920;2023-05-21T03:59:30;-21292.31;;;19.39;100.00
22261;BME280;11299;43.202;27.920;2023-05-21T04:01:56;-21292.47;;;19.40;100.00
22261;BME280;11299;43.202;27.920;2023-05-21T04:04:21;-21296.22;;;19.52;100.00
22261;BME280;11299;43.202;27.920;2023-05-21T04:06:47;-21281.84;;;19.06;100.00
22261;BME280;11299;43.202;27.920;2023-05-21T04:09:12;-21285.59;;;19.18;100.00
22261;BME280;11299;43.202;27.920;2023-05-21T04:11:37;-21301.69;;;19.69;99.85
22261;BME280;11299;43.202;27.920;2023-05-21T04:14:03;-21254.06;;;18.16;99.92
22261;BME280;11299;43.202;27.920;2023-05-21T04:16:28;-21312.13;;;20.03;98.89
22261;BME280;11299;43.202;27.920;2023-05-21T04:18:54;-21293.09;;;19.42;96.30
22261;BME280;11299;43.202;27.920;2023-05-21T04:21:19;-21316.34;;;20.17;95.23
22261;BME280;11299;43.202;27.920;2023-05-21T04:23:46;-21312.59;;;20.05;94.88
22261;BME280;11299;43.202;27.920;2023-05-21T04:26:11;-21324.91;;;20.44;94.14
22261;BME280;11299;43.202;27.920;2023-05-21T04:28:37;-21320.41;;;20.30;93.34
22261;BME280;11299;43.202;27.920;2023-05-21T04:31:06;-21332.41;;;20.69;93.49
22261;BME280;11299;43.202;27.920;2023-05-21T04:33:33;-21329.59;;;20.59;91.93
22261;BME280;11299;43.202;27.920;2023-05-21T04:36:00;-21337.53;;;20.85;91.42
22261;BME280;11299;43.202;27.920;2023-05-21T04:38:26;-21335.50;;;20.79;90.27
22261;BME280;11299;43.202;27.920;2023-05-21T04:40:51;-21339.72;;;20.92;89.67
22261;BME280;11299;43.202;27.920;2023-05-21T04:43:20;-21345.19;;;21.10;88.26
22261;BME280;11299;43.202;27.920;2023-05-21T04:45:52;-21343.94;;;21.06;88.93
22261;BME280;11299;43.202;27.920;2023-05-21T04:48:19;-21351.41;;;21.30;87.91
22261;BME280;11299;43.202;27.920;2023-05-21T04:50:44;-21348.63;;;21.21;87.03
22261;BME280;11299;43.202;27.920;2023-05-21T04:53:10;-21353.91;;;21.38;86.45
22261;BME280;11299;43.202;27.920;2023-05-21T04:55:36;-21354.22;;;21.39;85.77
22261;BME280;11299;43.202;27.920;2023-05-21T04:58:06;-21358.44;;;21.52;84.83
22261;BME280;11299;43.202;27.920;2023-05-21T05:00:32;-21348.63;;;21.21;84.35
22261;BME280;11299;43.202;27.920;2023-05-21T05:02:58;-21361.84;;;21.64;83.54
22261;BME280;11299;43.202;27.920;2023-05-21T05:05:24;-21362.78;;;21.67;83.52
22261;BME280;11299;43.202;27.920;2023-05-21T05:07:49;-21375.25;;;22.07;83.38
22261;BME280;11299;43.202;27.920;2023-05-21T05:10:15;-21365.13;;;21.74;82.38
22261;BME280;11299;43.202;27.920;2023-05-21T05:12:40;-21353.59;;;21.37;82.42
22261;BME280;11299;43.202;27.920;2023-05-21T05:15:06;-21356.88;;;21.47;81.69
22261;BME280;11299;43.202;27.920;2023-05-21T05:17:32;-21357.03;;;21.48;82.08
22261;BME280;11299;43.202;27.920;2023-05-21T05:19:58;-21367.78;;;21.83;81.91
22261;BME280;11299;43.202;27.920;2023-05-21T05:22:24;-21370.41;;;21.91;82.15
22261;BME280;11299;43.202;27.920;2023-05-21T05:24:49;-21370.72;;;21.92;81.16
22261;BME280;11299;43.202;27.920;2023-05-21T05:27:15;-21374.16;;;22.03;81.23
22261;BME280;11299;43.202;27.920;2023-05-21T05:29:43;-21358.88;;;21.54;80.28
22261;BME280;11299;43.202;27.920;2023-05-21T05:32:08;-21358.59;;;21.53;80.38
22261;BME280;11299;43.202;27.920;2023-05-21T05:34:34;-21380.84;;;22.25;80.20
22261;BME280;11299;43.202;27.920;2023-05-21T05:36:59;-21361.84;;;21.64;79.04
22261;BME280;11299;43.202;27.920;2023-05-21T05:39:26;-21370.72;;;21.92;78.44
22261;BME280;11299;43.202;27.920;2023-05-21T05:41:52;-21376.03;;;22.09;77.65
22261;BME280;11299;43.202;27.920;2023-05-21T05:44:17;-21394.25;;;22.68;76.45
22261;BME280;11299;43.202;27.920;2023-05-21T05:46:43;-21402.94;;;22.96;75.56
22261;BME280;11299;43.202;27.920;2023-05-21T05:49:08;-21397.19;;;22.78;75.47
22261;BME280;11299;43.202;27.920;2023-05-21T05:51:33;-21384.13;;;22.35;75.79
22261;BME280;11299;43.202;27.920;2023-05-21T05:54:00;-21388.31;;;22.49;75.42
22261;BME280;11299;43.202;27.920;2023-05-21T05:56:25;-21411.50;;;23.24;74.84
22261;BME280;11299;43.202;27.920;2023-05-21T05:58:51;-21392.53;;;22.63;74.95
22261;BME280;11299;43.202;27.920;2023-05-21T06:01:17;-21370.72;;;21.92;74.44
22261;BME280;11299;43.202;27.920;2023-05-21T06:03:43;-21392.22;;;22.62;74.83
22261;BME280;11299;43.202;27.920;2023-05-21T06:06:08;-21391.91;;;22.61;75.76
22261;BME280;11299;43.202;27.920;2023-05-21T06:08:34;-21412.44;;;23.27;73.47
22261;BME280;11299;43.202;27.920;2023-05-21T06:11:00;-21416.94;;;23.42;74.02
22261;BME280;11299;43.202;27.920;2023-05-21T06:13:25;-21405.59;;;23.05;73.07
22261;BME280;11299;43.202;27.920;2023-05-21T06:15:52;-21403.72;;;22.99;73.69
22261;BME280;11299;43.202;27.920;2023-05-21T06:18:17;-21425.81;;;23.70;73.08
22261;BME280;11299;43.202;27.920;2023-05-21T06:20:43;-21404.66;;;23.02;70.07
22261;BME280;11299;43.202;27.920;2023-05-21T06:23:08;-21426.13;;;23.71;70.03
22261;BME280;11299;43.202;27.920;2023-05-21T06:25:33;-21427.06;;;23.74;71.11
22261;BME280;11299;43.202;27.920;2023-05-21T06:27:59;-21435.28;;;24.01;70.07
22261;BME280;11299;43.202;27.920;2023-05-21T06:30:25;-21434.22;;;23.97;69.23
22261;BME280;11299;43.202;27.920;2023-05-21T06:32:50;-21433.28;;;23.94;69.39
22261;BME280;11299;43.202;27.920;2023-05-21T06:35:15;-21418.34;;;23.46;69.62
22261;BME280;11299;43.202;27.920;2023-05-21T06:37:41;-21432.03;;;23.90;68.40
22261;BME280;11299;43.202;27.920;2023-05-21T06:40:07;-21436.69;;;24.05;69.13
22261;BME280;11299;43.202;27.920;2023-05-21T06:42:33;-21443.22;;;24.26;68.82
22261;BME280;11299;43.202;27.920;2023-05-21T06:45:00;-21412.28;;;23.26;67.58
22261;BME280;11299;43.202;27.920;2023-05-21T06:47:25;-21418.34;;;23.46;67.25
22261;BME280;11299;43.202;27.920;2023-05-21T06:49:51;-21427.06;;;23.74;67.16
22261;BME280;11299;43.202;27.920;2023-05-21T06:52:16;-21446.63;;;24.38;67.59
22261;BME280;11299;43.202;27.920;2023-05-21T06:54:41;-21419.59;;;23.50;67.27
22261;BME280;11299;43.202;27.920;2023-05-21T06:57:07;-21451.91;;;24.55;66.51
22261;BME280;11299;43.202;27.920;2023-05-21T06:59:32;-21434.22;;;23.97;67.03
22261;BME280;11299;43.202;27.920;2023-05-21T07:01:58;-21454.09;;;24.62;66.51
22261;BME280;11299;43.202;27.920;2023-05-21T07:04:23;-21439.66;;;24.15;66.58
22261;BME280;11299;43.202;27.920;2023-05-21T07:06:49;-21443.22;;;24.26;65.00
22261;BME280;11299;43.202;27.920;2023-05-21T07:09:16;-21462.19;;;24.88;64.80
22261;BME280;11299;43.202;27.920;2023-05-21T07:11:42;-21449.59;;;24.47;64.34
22261;BME280;11299;43.202;27.920;2023-05-21T07:14:08;-21464.34;;;24.95;64.65
22261;BME280;11299;43.202;27.920;2023-05-21T07:16:34;-21447.56;;;24.41;64.40
22261;BME280;11299;43.202;27.920;2023-05-21T07:18:59;-21450.69;;;24.51;63.51
22261;BME280;11299;43.202;27.920;2023-05-21T07:21:24;-21471.03;;;25.16;64.44
22261;BME280;11299;43.202;27.920;2023-05-21T07:23:50;-21477.38;;;25.37;62.91
22261;BME280;11299;43.202;27.920;2023-05-21T07:26:15;-21482.22;;;25.53;61.18
22261;BME280;11299;43.202;27.920;2023-05-21T07:28:41;-21481.59;;;25.51;61.25
22261;BME280;11299;43.202;27.920;2023-05-21T07:31:06;-21485.78;;;25.64;61.25
22261;BME280;11299;43.202;27.920;2023-05-21T07:33:32;-21502.38;;;26.18;62.21
22261;BME280;11299;43.202;27.920;2023-05-21T07:35:58;-21506.25;;;26.31;62.77
22261;BME280;11299;43.202;27.920;2023-05-21T07:38:23;-21489.34;;;25.76;60.88
22261;BME280;11299;43.202;27.920;2023-05-21T07:40:49;-21473.19;;;25.24;61.12
22261;BME280;11299;43.202;27.920;2023-05-21T07:43:15;-21510.59;;;26.45;61.65
22261;BME280;11299;43.202;27.920;2023-05-21T07:45:40;-21505.63;;;26.29;61.59
22261;BME280;11299;43.202;27.920;2023-05-21T07:48:05;-21523.31;;;26.86;67.48
22261;BME280;11299;43.202;27.920;2023-05-21T07:50:31;-21514.94;;;26.59;67.97
22261;BME280;11299;43.202;27.920;2023-05-21T07:52:56;-21507.81;;;26.36;70.44
22261;BME280;11299;43.202;27.920;2023-05-21T07:55:22;-21532.16;;;27.15;71.06
22261;BME280;11299;43.202;27.920;2023-05-21T07:57:47;-21525.78;;;26.94;70.76
22261;BME280;11299;43.202;27.920;2023-05-21T08:00:14;-21531.84;;;27.14;70.90
22261;BME280;11299;43.202;27.920;2023-05-21T08:02:39;-21529.34;;;27.06;70.88
22261;BME280;11299;43.202;27.920;2023-05-21T08:05:05;-21528.28;;;27.02;67.05
22261;BME280;11299;43.202;27.920;2023-05-21T08:07:30;-21509.50;;;26.41;68.24
22261;BME280;11299;43.202;27.920;2023-05-21T08:09:57;-21483.59;;;25.57;67.98
22261;BME280;11299;43.202;27.920;2023-05-21T08:12:23;-21514.00;;;26.56;71.27
22261;BME280;11299;43.202;27.920;2023-05-21T08:14:48;-21536.31;;;27.28;72.98
22261;BME280;11299;43.202;27.920;2023-05-21T08:17:14;-21534.63;;;27.23;73.83
22261;BME280;11299;43.202;27.920;2023-05-21T08:19:40;-21534.78;;;27.23;75.66
22261;BME280;11299;43.202;27.920;2023-05-21T08:22:06;-21522.69;;;26.84;76.02
22261;BME280;11299;43.202;27.920;2023-05-21T08:24:31;-21529.81;;;27.07;76.16
22261;BME280;11299;43.202;27.920;2023-05-21T08:26:57;-21532.91;;;27.17;75.99
22261;BME280;11299;43.202;27.920;2023-05-21T08:29:22;-21526.09;;;26.95;75.85
22261;BME280;11299;43.202;27.920;2023-05-21T08:31:48;-21521.75;;;26.81;74.84
22261;BME280;11299;43.202;27.920;2023-05-21T08:34:13;-21522.22;;;26.82;69.83
22261;BME280;11299;43.202;27.920;2023-05-21T08:36:38;-21524.88;;;26.91;70.19
22261;BME280;11299;43.202;27.920;2023-05-21T08:39:07;-21521.31;;;26.79;72.43
22261;BME280;11299;43.202;27.920;2023-05-21T08:41:34;-21513.38;;;26.54;71.85
22261;BME280;11299;43.202;27.920;2023-05-21T08:44:01;-21515.56;;;26.61;71.69
22261;BME280;11299;43.202;27.920;2023-05-21T08:46:32;-21520.69;;;26.77;71.19
22261;BME280;11299;43.202;27.920;2023-05-21T08:49:01;-21518.19;;;26.69;70.84
22261;BME280;11299;43.202;27.920;2023-05-21T08:51:27;-21493.84;;;25.90;69.56
22261;BME280;11299;43.202;27.920;2023-05-21T08:53:54;-21520.84;;;26.78;71.03
22261;BME280;11299;43.202;27.920;2023-05-21T08:56:21;-21507.50;;;26.35;69.79
22261;BME280;11299;43.202;27.920;2023-05-21T08:58:47;-21509.81;;;26.42;70.78
22261;BME280;11299;43.202;27.920;2023-05-21T09:01:13;-21485.94;;;25.65;71.71
22261;BME280;11299;43.202;27.920;2023-05-21T09:03:39;-21520.38;;;26.76;72.34
22261;BME280;11299;43.202;27.920;2023-05-21T09:06:14;-21488.25;;;25.72;77.65
22261;BME280;11299;43.202;27.920;2023-05-21T09:08:44;-21469.94;;;25.13;77.53
22261;BME280;11299;43.202;27.920;2023-05-21T09:11:10;-21469.63;;;25.12;79.51
22261;BME280;11299;43.202;27.920;2023-05-21T09:13:37;-21477.38;;;25.37;80.04
22261;BME280;11299;43.202;27.920;2023-05-21T09:16:03;-21475.22;;;25.30;78.23
22261;BME280;11299;43.202;27.920;2023-05-21T09:18:29;-21469.94;;;25.13;72.58
22261;BME280;11299;43.202;27.920;2023-05-21T09:20:55;-21483.13;;;25.56;74.63
22261;BME280;11299;43.202;27.920;2023-05-21T09:23:21;-21473.19;;;25.24;72.16
22261;BME280;11299;43.202;27.920;2023-05-21T09:25:47;-21480.34;;;25.47;71.39
22261;BME280;11299;43.202;27.920;2023-05-21T09:28:14;-21491.06;;;25.81;72.79
22261;BME280;11299;43.202;27.920;2023-05-21T09:30:47;-21506.25;;;26.31;71.00
22261;BME280;11299;43.202;27.920;2023-05-21T09:33:28;-21512.16;;;26.50;70.75
22261;BME280;11299;43.202;27.920;2023-05-21T09:35:54;-21514.94;;;26.59;69.56
22261;BME280;11299;43.202;27.920;2023-05-21T09:38:23;-21515.56;;;26.61;69.88
22261;BME280;11299;43.202;27.920;2023-05-21T09:40:50;-21513.69;;;26.55;69.55
22261;BME280;11299;43.202;27.920;2023-05-21T09:43:15;-21516.50;;;26.64;68.38
22261;BME280;11299;43.202;27.920;2023-05-21T09:45:51;-21504.09;;;26.24;68.82
22261;BME280;11299;43.202;27.920;2023-05-21T09:48:16;-21523.16;;;26.85;68.33
22261;BME280;11299;43.202;27.920;2023-05-21T09:51:06;-21508.28;;;26.37;67.43
22261;BME280;11299;43.202;27.920;2023-05-21T09:53:32;-21524.56;;;26.90;68.21
22261;BME280;11299;43.202;27.920;2023-05-21T09:55:58;-21517.09;;;26.66;68.50
22261;BME280;11299;43.202;27.920;2023-05-21T09:58:24;-21533.22;;;27.18;66.81
22261;BME280;11299;43.202;27.920;2023-05-21T10:00:51;-21539.13;;;27.37;65.90
22261;BME280;11299;43.202;27.920;2023-05-21T10:03:22;-21540.66;;;27.42;62.56
22261;BME280;11299;43.202;27.920;2023-05-21T10:05:48;-21545.63;;;27.58;63.26
22261;BME280;11299;43.202;27.920;2023-05-21T10:08:17;-21545.00;;;27.56;63.58
22261;BME280;11299;43.202;27.920;2023-05-21T10:10:46;-21545.63;;;27.58;61.83
22261;BME280;11299;43.202;27.920;2023-05-21T10:13:17;-21546.25;;;27.60;60.32
22261;BME280;11299;43.202;27.920;2023-05-21T10:15:57;-21547.03;;;27.63;60.41
22261;BME280;11299;43.202;27.920;2023-05-21T10:18:26;-21552.75;;;27.81;60.89
22261;BME280;11299;43.202;27.920;2023-05-21T10:20:52;-21546.25;;;27.60;60.08
22261;BME280;11299;43.202;27.920;2023-05-21T10:23:19;-21527.03;;;26.98;60.19
22261;BME280;11299;43.202;27.920;2023-05-21T10:25:45;-21547.63;;;27.65;61.22
22261;BME280;11299;43.202;27.920;2023-05-21T10:28:15;-21530.13;;;27.08;61.63
22261;BME280;11299;43.202;27.920;2023-05-21T10:30:40;-21550.72;;;27.75;62.18
22261;BME280;11299;43.202;27.920;2023-05-21T10:33:06;-21556.78;;;27.95;60.91
22261;BME280;11299;43.202;27.920;2023-05-21T10:35:37;-21545.47;;;27.58;60.78
22261;BME280;11299;43.202;27.920;2023-05-21T10:38:03;-21568.53;;;28.33;59.41
22261;BME280;11299;43.202;27.920;2023-05-21T10:40:29;-21567.63;;;28.30;60.11
22261;BME280;11299;43.202;27.920;2023-05-21T10:43:08;-21564.53;;;28.20;59.98
22261;BME280;11299;43.202;27.920;2023-05-21T10:46:06;-21563.28;;;28.16;60.18
22261;BME280;11299;43.202;27.920;2023-05-21T10:49:09;-21560.66;;;28.07;59.66
22261;BME280;11299;43.202;27.920;2023-05-21T10:51:47;-21564.81;;;28.21;59.96
22261;BME280;11299;43.202;27.920;2023-05-21T10:56:57;-21556.63;;;27.94;59.95
22261;BME280;11299;43.202;27.920;2023-05-21T10:59:44;-21574.41;;;28.52;59.59
22261;BME280;11299;43.202;27.920;2023-05-21T11:02:13;-21576.75;;;28.59;60.32
22261;BME280;11299;43.202;27.920;2023-05-21T11:04:40;-21587.41;;;28.94;59.89
22261;BME280;11299;43.202;27.920;2023-05-21T11:07:10;-21597.16;;;29.26;58.36
22261;BME280;11299;43.202;27.920;2023-05-21T11:09:37;-21591.44;;;29.07;56.31
22261;BME280;11299;43.202;27.920;2023-05-21T11:12:02;-21600.88;;;29.38;55.49
22261;BME280;11299;43.202;27.920;2023-05-21T11:17:14;-21616.81;;;29.90;53.28
22261;BME280;11299;43.202;27.920;2023-05-21T11:19:44;-21617.09;;;29.91;54.42
22261;BME280;11299;43.202;27.920;2023-05-21T11:22:25;-21613.09;;;29.78;52.87
22261;BME280;11299;43.202;27.920;2023-05-21T11:24:53;-21602.56;;;29.43;52.66
22261;BME280;11299;43.202;27.920;2023-05-21T11:27:33;-21599.19;;;29.32;53.53
22261;BME280;11299;43.202;27.920;2023-05-21T11:30:01;-21581.53;;;28.75;53.45
22261;BME280;11299;43.202;27.920;2023-05-21T11:32:27;-21597.31;;;29.26;53.82
22261;BME280;11299;43.202;27.920;2023-05-21T11:34:58;-21588.97;;;28.99;54.32
22261;BME280;11299;43.202;27.920;2023-05-21T11:37:27;-21591.91;;;29.09;53.71
22261;BME280;11299;43.202;27.920;2023-05-21T11:40:14;-21585.88;;;28.89;52.88
22261;BME280;11299;43.202;27.920;2023-05-21T11:42:40;-21574.72;;;28.53;53.07
22261;BME280;11299;43.202;27.920;2023-05-21T11:45:07;-21562.50;;;28.13;53.65
22261;BME280;11299;43.202;27.920;2023-05-21T11:47:33;-21577.06;;;28.60;52.62
22261;BME280;11299;43.202;27.920;2023-05-21T11:50:02;-21575.06;;;28.54;53.34
22261;BME280;11299;43.202;27.920;2023-05-21T11:52:29;-21557.72;;;27.98;53.10
22261;BME280;11299;43.202;27.920;2023-05-21T11:54:55;-21550.59;;;27.74;53.77
22261;BME280;11299;43.202;27.920;2023-05-21T11:57:24;-21569.47;;;28.36;54.13
22261;BME280;11299;43.202;27.920;2023-05-21T11:59:50;-21566.06;;;28.25;54.52
22261;BME280;11299;43.202;27.920;2023-05-21T12:02:18;-21560.19;;;28.06;54.77
22261;BME280;11299;43.202;27.920;2023-05-21T12:04:48;-21541.75;;;27.46;55.89
22261;BME280;11299;43.202;27.920;2023-05-21T12:07:16;-21536.63;;;27.29;56.53
22261;BME280;11299;43.202;27.920;2023-05-21T12:09:43;-21546.56;;;27.61;57.86
22261;BME280;11299;43.202;27.920;2023-05-21T12:12:12;-21535.72;;;27.26;71.39
22261;BME280;11299;43.202;27.920;2023-05-21T12:14:38;-21514.31;;;26.57;90.77
22261;BME280;11299;43.202;27.920;2023-05-21T12:17:05;-21495.09;;;25.94;97.11
22261;BME280;11299;43.202;27.920;2023-05-21T12:19:35;-21489.97;;;25.78;100.00
22261;BME280;11299;43.202;27.920;2023-05-21T12:22:05;-21461.25;;;24.85;100.00
22261;BME280;11299;43.202;27.920;2023-05-21T12:24:31;-21429.84;;;23.83;100.00
22261;BME280;11299;43.202;27.920;2023-05-21T12:26:58;-21433.91;;;23.96;100.00
22261;BME280;11299;43.202;27.920;2023-05-21T12:29:29;-21434.22;;;23.97;100.00
22261;BME280;11299;43.202;27.920;2023-05-21T12:31:58;-21427.06;;;23.74;100.00
22261;BME280;11299;43.202;27.920;2023-05-21T12:37:15;-21452.53;;;24.57;100.00
22261;BME280;11299;43.202;27.920;2023-05-21T12:39:45;-21463.09;;;24.91;100.00
22261;BME280;11299;43.202;27.920;2023-05-21T12:42:11;-21454.25;;;24.62;100.00
22261;BME280;11299;43.202;27.920;2023-05-21T12:44:43;-21466.84;;;25.03;100.00